Time;durP1;ratioP1;P1;durP2;ratioP2;P2;SDS_P1;SDS_P2;PMS_P1;PMS_P2;Temp;Humidity;BMP_temperature;BMP_pressure;BME280_temperature;BME280_humidity;BME280_pressure;Samples;Min_cycle;Max_cycle;Signal;HPM_P1;HPM_P2
2023/03/18 00:00:39;;;;;;;0.25;0.25;;;;;;;3.83;75.60;100174.25;6076263;23;20009;-87
2023/03/18 00:03:05;;;;;;;0.03;0.03;;;;;;;3.85;75.13;100180.13;6123979;23;20014;-86
2023/03/18 00:05:33;;;;;;;0.40;0.40;;;;;;;3.86;74.14;100185.22;6124897;23;20012;-87
2023/03/18 00:07:59;;;;;;;0.30;0.30;;;;;;;3.83;73.43;100179.72;6123484;23;20024;-86
2023/03/18 00:10:25;;;;;;;1.65;0.65;;;;;;;3.79;73.42;100170.72;6100035;23;20041;-86
2023/03/18 00:12:52;;;;;;;0.28;0.28;;;;;;;3.63;73.38;100155.38;6124628;23;20001;-86
2023/03/18 00:15:18;;;;;;;0.20;0.20;;;;;;;3.76;72.88;100175.78;6099396;23;20020;-86
2023/03/18 00:17:44;;;;;;;0.00;0.00;;;;;;;3.73;73.84;100173.81;6099396;23;20009;-86
2023/03/18 00:20:11;;;;;;;0.40;0.40;;;;;;;3.71;74.20;100172.66;6098586;23;20026;-86
2023/03/18 00:22:38;;;;;;;2.20;0.82;;;;;;;3.60;74.18;100152.63;6098162;23;20024;-87
2023/03/18 00:25:06;;;;;;;0.10;0.10;;;;;;;3.64;74.81;100167.91;6123299;23;20108;-87
2023/03/18 00:27:32;;;;;;;0.30;0.30;;;;;;;3.68;75.15;100174.19;6101320;23;20013;-86
2023/03/18 00:29:58;;;;;;;0.85;0.85;;;;;;;3.66;75.86;100173.81;6099229;23;20018;-86
2023/03/18 00:32:27;;;;;;;1.35;0.98;;;;;;;3.55;76.77;100162.03;6125761;23;20013;-87
2023/03/18 00:34:55;;;;;;;0.60;0.60;;;;;;;3.54;76.72;100162.41;6127652;23;20089;-86
2023/03/18 00:37:32;;;;;;;0.32;0.32;;;;;;;3.61;76.51;100168.69;6102039;23;20064;-87
2023/03/18 00:40:04;;;;;;;1.13;0.95;;;;;;;3.65;75.98;100174.19;6075931;23;20014;-85
2023/03/18 00:42:37;;;;;;;0.10;0.10;;;;;;;3.61;76.67;100173.38;6099052;23;20454;-85
2023/03/18 00:45:05;;;;;;;1.42;0.75;;;;;;;3.60;76.85;100160.88;6102593;23;20014;-85
2023/03/18 00:47:31;;;;;;;0.52;0.52;;;;;;;3.60;77.30;100172.59;6101694;23;20157;-86
2023/03/18 00:49:57;;;;;;;1.85;1.48;;;;;;;3.59;77.70;100165.56;6102280;23;20131;-86
2023/03/18 00:52:22;;;;;;;0.00;0.00;;;;;;;3.51;77.74;100153.00;6101926;23;20420;-85
2023/03/18 00:54:49;;;;;;;1.08;0.85;;;;;;;3.46;78.01;100150.63;6078155;23;20462;-86
2023/03/18 00:57:14;;;;;;;1.60;1.13;;;;;;;3.48;77.48;100158.47;6078161;23;20006;-86
2023/03/18 00:59:40;;;;;;;0.45;0.45;;;;;;;3.48;77.74;100145.53;6101800;23;20112;-87
2023/03/18 01:02:05;;;;;;;1.20;1.20;;;;;;;3.46;77.72;100156.09;6077303;23;20021;-86
2023/03/18 01:04:32;;;;;;;0.20;0.20;;;;;;;3.51;77.52;100147.50;6101873;23;20025;-85
2023/03/18 01:06:58;;;;;;;1.98;1.42;;;;;;;3.54;77.40;100148.69;6101968;23;20013;-86
2023/03/18 01:09:23;;;;;;;0.38;0.38;;;;;;;3.46;77.01;100139.66;6125383;23;20009;-86
2023/03/18 01:11:49;;;;;;;0.10;0.10;;;;;;;3.42;76.96;100125.16;6098975;23;20048;-86
2023/03/18 01:14:15;;;;;;;0.43;0.43;;;;;;;3.45;77.42;100138.06;6101030;23;20422;-86
2023/03/18 01:16:40;;;;;;;0.80;0.80;;;;;;;3.30;77.53;100103.56;6076463;23;20025;-86
2023/03/18 01:19:06;;;;;;;1.02;0.75;;;;;;;3.41;78.20;100134.53;6097772;23;20021;-86
2023/03/18 01:21:31;;;;;;;0.10;0.10;;;;;;;3.29;78.83;100123.91;6124986;23;20461;-87
2023/03/18 01:23:59;;;;;;;0.20;0.20;;;;;;;3.29;79.33;100124.69;6076010;23;20064;-86
2023/03/18 01:26:26;;;;;;;0.55;0.55;;;;;;;3.37;79.53;100130.19;6100637;23;20020;-87
2023/03/18 01:28:53;;;;;;;2.47;1.15;;;;;;;3.31;79.58;100124.31;6076519;23;20014;-86
2023/03/18 01:31:19;;;;;;;0.40;0.40;;;;;;;3.37;79.19;100136.47;6098025;23;20401;-87
2023/03/18 01:33:46;;;;;;;0.93;0.93;;;;;;;3.19;78.91;100111.75;6102140;23;20021;-86
2023/03/18 01:36:12;;;;;;;0.50;0.50;;;;;;;3.32;79.44;100134.09;6125747;23;20018;-87
2023/03/18 01:38:39;;;;;;;1.08;1.00;;;;;;;3.29;79.30;100124.69;6102088;23;20021;-86
2023/03/18 01:41:11;;;;;;;0.50;0.50;;;;;;;3.30;79.06;100130.97;6080541;23;20603;-86
2023/03/18 01:43:39;;;;;;;0.40;0.40;;;;;;;3.28;79.33;100128.59;6078161;23;20244;-86
2023/03/18 01:46:37;;;;;;;1.13;0.68;;;;;;;3.27;79.43;100126.28;6077485;23;20006;-87
2023/03/18 01:49:11;;;;;;;0.52;0.52;;;;;;;3.22;79.70;100113.72;6101477;23;20025;-88
2023/03/18 01:51:39;;;;;;;0.73;0.73;;;;;;;3.24;79.58;100118.78;6101892;23;20030;-87
2023/03/18 01:54:06;;;;;;;0.30;0.30;;;;;;;3.16;80.02;100114.44;6077517;23;20013;-87
2023/03/18 01:56:35;;;;;;;0.22;0.22;;;;;;;3.09;80.21;100098.78;6077886;23;20020;-87
2023/03/18 01:59:01;;;;;;;1.10;1.00;;;;;;;3.17;80.11;100116.03;6102087;23;20017;-86
2023/03/18 02:04:05;;;;;;;1.25;1.10;;;;;;;2.92;79.77;100063.06;6113480;23;1388481;-93
2023/03/18 02:06:32;;;;;;;0.40;0.40;;;;;;;3.14;79.50;100097.63;6105308;23;20017;-93
2023/03/18 02:09:00;;;;;;;0.85;0.85;;;;;;;3.08;79.30;100090.91;6118192;23;20025;-91
2023/03/18 02:11:25;;;;;;;0.50;0.50;;;;;;;3.13;78.97;100107.78;6129520;23;20021;-93
2023/03/18 02:13:56;;;;;;;1.65;0.93;;;;;;;3.03;79.03;100096.78;6118391;23;20036;-93
2023/03/18 02:16:24;;;;;;;0.50;0.50;;;;;;;3.12;79.48;100111.69;6104539;23;20086;-92
2023/03/18 02:18:53;;;;;;;2.25;2.05;;;;;;;3.02;78.90;100092.47;6105823;23;20363;-88
2023/03/18 02:21:40;;;;;;;0.10;0.10;;;;;;;3.00;79.11;100092.84;6104882;23;20039;-88
2023/03/18 02:25:02;;;;;;;2.20;2.00;;;;;;;3.12;78.80;100108.16;6103201;23;20013;-88
2023/03/18 02:27:34;;;;;;;2.65;1.65;;;;;;;3.06;79.17;100099.53;6077471;23;20017;-88
2023/03/18 02:30:05;;;;;;;0.38;0.38;;;;;;;3.13;79.21;100112.47;6127912;23;20394;-88
2023/03/18 02:32:34;;;;;;;0.20;0.20;;;;;;;3.11;78.90;100101.13;6105975;23;20084;-88
2023/03/18 02:35:05;;;;;;;1.25;1.15;;;;;;;3.04;79.25;100084.63;6130142;23;20041;-88
2023/03/18 02:37:33;;;;;;;3.40;1.10;;;;;;;3.09;79.38;100103.47;6105863;23;20116;-89
2023/03/18 02:40:20;;;;;;;0.30;0.30;;;;;;;3.06;80.32;100101.50;6106078;23;20020;-88
2023/03/18 02:42:47;;;;;;;0.10;0.10;;;;;;;3.01;81.17;100096.38;6129048;23;20044;-88
2023/03/18 02:45:37;;;;;;;0.25;0.25;;;;;;;3.04;80.89;100101.09;6105910;23;20021;-89
2023/03/18 02:48:10;;;;;;;0.20;0.20;;;;;;;3.00;81.30;100089.31;6131055;23;20347;-91
2023/03/18 02:50:36;;;;;;;2.38;2.17;;;;;;;3.03;81.38;100094.06;6106029;23;20064;-91
2023/03/18 02:53:03;;;;;;;0.20;0.20;;;;;;;3.04;80.66;100093.66;6104871;23;20517;-93
2023/03/18 02:55:29;;;;;;;0.65;0.65;;;;;;;3.07;80.85;100101.13;6106531;23;20013;-93
2023/03/18 02:57:56;;;;;;;1.00;0.95;;;;;;;3.11;81.31;100098.41;6129932;23;20029;-92
2023/03/18 03:00:22;;;;;;;0.28;0.28;;;;;;;3.06;81.11;100090.53;6130494;23;20087;-92
2023/03/18 03:02:48;;;;;;;1.55;1.30;;;;;;;3.01;81.57;100088.16;6105776;23;20025;-93
2023/03/18 03:05:14;;;;;;;0.65;0.63;;;;;;;3.00;82.34;100089.31;6130763;23;20028;-92
2023/03/18 03:07:40;;;;;;;0.00;0.00;;;;;;;3.10;83.04;100099.56;6128782;23;20036;-93
2023/03/18 03:10:08;;;;;;;0.22;0.22;;;;;;;3.04;82.96;100084.63;6129166;23;20399;-92
2023/03/18 03:12:36;;;;;;;0.10;0.10;;;;;;;3.01;84.94;100082.69;6128657;23;20092;-91
2023/03/18 03:15:04;;;;;;;0.08;0.08;;;;;;;3.09;84.92;100095.25;6129842;23;20024;-91
2023/03/18 03:17:34;;;;;;;0.55;0.55;;;;;;;3.04;85.78;100106.56;6128274;23;20067;-93
2023/03/18 03:20:00;;;;;;;0.90;0.63;;;;;;;3.07;85.83;100106.59;6103166;23;20021;-92
2023/03/18 03:22:27;;;;;;;1.17;0.95;;;;;;;3.04;84.72;100101.88;6128858;23;20435;-91
2023/03/18 03:24:53;;;;;;;0.28;0.28;;;;;;;3.00;84.20;100095.59;6128707;23;20017;-91
2023/03/18 03:27:19;;;;;;;0.65;0.65;;;;;;;3.06;83.96;100098.75;6129373;23;20726;-92
2023/03/18 03:29:44;;;;;;;1.75;1.65;;;;;;;3.03;83.89;100105.81;6127720;23;20085;-91
2023/03/18 03:32:12;;;;;;;0.77;0.70;;;;;;;3.03;83.70;100108.53;6129741;23;20017;-92
2023/03/18 03:34:37;;;;;;;0.22;0.22;;;;;;;3.01;83.50;100105.38;6130087;23;20012;-91
2023/03/18 03:37:03;;;;;;;0.20;0.20;;;;;;;3.04;83.90;100112.03;6104982;23;20013;-93
2023/03/18 03:39:29;;;;;;;0.20;0.20;;;;;;;2.99;83.67;100110.47;6154893;23;20095;-94
2023/03/18 03:41:54;;;;;;;0.00;0.00;;;;;;;3.02;83.34;100114.41;6129749;23;20033;-92
2023/03/18 03:44:20;;;;;;;1.55;1.45;;;;;;;2.99;82.93;100093.25;6129668;23;20048;-88
2023/03/18 03:46:48;;;;;;;0.03;0.03;;;;;;;3.01;82.26;100118.31;6129897;23;20017;-88
2023/03/18 03:49:13;;;;;;;0.73;0.73;;;;;;;2.97;82.10;100115.53;6128901;23;20044;-88
2023/03/18 03:51:39;;;;;;;2.17;1.70;;;;;;;3.00;81.81;100117.50;6129287;23;20017;-87
2023/03/18 03:54:05;;;;;;;0.80;0.80;;;;;;;3.01;81.39;100115.56;6129458;23;20017;-88
2023/03/18 03:56:31;;;;;;;0.65;0.65;;;;;;;2.91;81.66;100108.09;6129729;23;20087;-88
2023/03/18 03:58:57;;;;;;;0.55;0.55;;;;;;;2.94;80.99;100110.84;6129013;23;20012;-88
2023/03/18 04:01:29;;;;;;;0.52;0.52;;;;;;;2.88;81.07;100108.84;6107566;23;20383;-93
2023/03/18 04:03:59;;;;;;;0.57;0.57;;;;;;;2.97;80.42;100133.94;6105815;23;20024;-94
2023/03/18 04:06:25;;;;;;;1.45;1.35;;;;;;;2.88;79.69;100122.53;6128935;23;20017;-92
2023/03/18 04:08:58;;;;;;;0.40;0.40;;;;;;;2.93;79.61;100127.66;6128914;23;20024;-91
2023/03/18 04:11:24;;;;;;;0.50;0.50;;;;;;;2.89;79.43;100104.94;6128541;23;20017;-92
2023/03/18 04:13:50;;;;;;;0.43;0.43;;;;;;;2.90;79.60;100123.72;6128796;23;20016;-88
2023/03/18 04:16:17;;;;;;;0.45;0.45;;;;;;;2.91;79.74;100130.00;6101884;23;20009;-88
2023/03/18 04:18:43;;;;;;;0.38;0.38;;;;;;;2.87;79.81;100120.97;6128987;23;20032;-89
2023/03/18 04:21:09;;;;;;;0.80;0.75;;;;;;;2.83;81.04;100116.25;6101874;23;20017;-88
2023/03/18 04:23:40;;;;;;;0.82;0.65;;;;;;;2.79;81.18;100106.47;6129239;23;20044;-89
2023/03/18 04:26:06;;;;;;;0.00;0.00;;;;;;;2.88;81.10;100120.56;6128353;23;20016;-89
2023/03/18 04:28:32;;;;;;;0.47;0.47;;;;;;;2.88;81.17;100122.53;6127665;23;20624;-88
2023/03/18 04:30:59;;;;;;;0.93;0.93;;;;;;;2.89;80.16;100111.19;6129462;23;20052;-88
2023/03/18 04:33:25;;;;;;;0.68;0.68;;;;;;;2.88;80.04;100119.78;6126569;23;20005;-88
2023/03/18 04:35:51;;;;;;;0.85;0.85;;;;;;;2.86;79.77;100116.66;6101708;23;20009;-88
2023/03/18 04:38:18;;;;;;;0.70;0.70;;;;;;;2.81;80.09;100113.13;6129077;23;20044;-88
2023/03/18 04:40:46;;;;;;;0.30;0.30;;;;;;;2.64;79.90;100080.13;6130156;23;20143;-91
2023/03/18 04:43:11;;;;;;;0.25;0.25;;;;;;;2.83;80.02;100115.47;6130008;23;20048;-88
2023/03/18 04:45:37;;;;;;;0.63;0.57;;;;;;;2.81;79.73;100115.06;6080759;23;20473;-88
2023/03/18 04:48:04;;;;;;;0.38;0.38;;;;;;;2.83;79.29;100118.22;6129471;23;20020;-88
2023/03/18 04:50:35;;;;;;;0.65;0.65;;;;;;;2.87;78.12;100124.50;6153923;23;20012;-89
2023/03/18 04:53:02;;;;;;;0.20;0.20;;;;;;;2.76;77.90;100102.50;6129430;23;20013;-89
2023/03/18 04:55:29;;;;;;;0.35;0.35;;;;;;;2.83;77.49;100116.25;6130153;23;20001;-88
2023/03/18 04:57:56;;;;;;;0.47;0.47;;;;;;;2.85;77.63;100115.88;6106353;23;20059;-92
2023/03/18 05:00:24;;;;;;;0.55;0.52;;;;;;;2.79;77.91;100107.22;6130052;23;20522;-92
2023/03/18 05:02:56;;;;;;;0.13;0.13;;;;;;;2.83;78.29;100124.47;6131000;23;20016;-92
2023/03/18 05:05:24;;;;;;;0.60;0.60;;;;;;;2.87;78.47;100115.50;6129894;23;20024;-93
2023/03/18 05:07:51;;;;;;;0.15;0.15;;;;;;;2.83;77.40;100105.28;6129236;23;20021;-93
2023/03/18 05:10:18;;;;;;;1.17;0.90;;;;;;;2.88;77.70;100125.28;6104536;23;20096;-88
2023/03/18 05:12:44;;;;;;;0.20;0.20;;;;;;;2.96;77.49;100137.84;6129747;23;20047;-88
2023/03/18 05:15:13;;;;;;;0.63;0.63;;;;;;;2.97;76.95;100134.72;6131109;23;20210;-88
2023/03/18 05:17:44;;;;;;;0.45;0.45;;;;;;;2.95;76.73;100126.13;6132347;23;20474;-88
2023/03/18 05:20:27;;;;;;;0.85;0.85;;;;;;;2.90;76.22;100125.69;6131005;23;20021;-89
2023/03/18 05:22:58;;;;;;;0.25;0.25;;;;;;;2.91;75.78;100135.47;6129033;23;20474;-89
2023/03/18 05:25:35;;;;;;;1.85;1.00;;;;;;;2.89;75.70;100135.84;6110856;23;20344;-88
2023/03/18 05:28:01;;;;;;;0.85;0.75;;;;;;;2.91;75.59;100141.75;6131897;23;20435;-92
2023/03/18 05:30:39;;;;;;;1.02;0.88;;;;;;;3.01;74.93;100149.22;6133327;23;20410;-92
2023/03/18 05:33:06;;;;;;;0.82;0.82;;;;;;;2.92;74.47;100139.78;6155933;23;20036;-92
2023/03/18 05:35:46;;;;;;;0.57;0.57;;;;;;;2.95;74.42;100141.78;6181810;23;20051;-93
2023/03/18 05:38:13;;;;;;;0.80;0.80;;;;;;;3.01;74.49;100143.75;6130937;23;20004;-88
2023/03/18 05:40:39;;;;;;;0.75;0.63;;;;;;;3.07;74.62;100153.19;6153062;23;20043;-90
2023/03/18 05:43:12;;;;;;;1.53;1.43;;;;;;;3.10;74.34;100143.41;6154253;23;20021;-89
2023/03/18 05:45:45;;;;;;;0.70;0.68;;;;;;;3.21;73.77;100150.50;6131383;23;20325;-89
2023/03/18 05:48:14;;;;;;;0.22;0.22;;;;;;;3.19;73.49;100132.88;6129119;23;20489;-88
2023/03/18 05:50:50;;;;;;;0.95;0.70;;;;;;;3.30;73.76;100141.94;6154310;23;20362;-89
2023/03/18 05:53:21;;;;;;;0.68;0.65;;;;;;;3.37;73.98;100152.94;6131657;23;20021;-89
2023/03/18 05:55:52;;;;;;;0.80;0.80;;;;;;;3.34;73.64;100133.72;6106644;23;20016;-88
2023/03/18 05:58:18;;;;;;;3.30;1.20;;;;;;;3.39;72.87;100136.88;6106515;23;20025;-94
2023/03/18 06:00:46;;;;;;;0.13;0.13;;;;;;;3.51;72.49;100142.03;6154528;23;20471;-91
2023/03/18 06:03:12;;;;;;;0.70;0.55;;;;;;;3.49;72.18;100127.91;6156173;23;20157;-91
2023/03/18 06:05:38;;;;;;;0.40;0.40;;;;;;;3.69;71.99;100142.06;6130540;23;20017;-90
2023/03/18 06:08:03;;;;;;;0.30;0.30;;;;;;;3.88;71.55;100151.94;6104574;23;20031;-93
2023/03/18 06:10:31;;;;;;;0.20;0.20;;;;;;;3.98;71.04;100153.88;6155218;23;20028;-92
2023/03/18 06:12:59;;;;;;;0.25;0.25;;;;;;;3.87;70.73;100117.41;6128936;23;20051;-91
2023/03/18 06:15:26;;;;;;;0.73;0.73;;;;;;;4.27;70.15;100154.72;6126804;23;20115;-92
2023/03/18 06:17:51;;;;;;;0.32;0.32;;;;;;;4.41;69.02;100160.97;6130509;23;20052;-93
2023/03/18 06:20:20;;;;;;;0.00;0.00;;;;;;;4.53;66.98;100152.34;6129270;23;20009;-91
2023/03/18 06:22:48;;;;;;;0.47;0.47;;;;;;;4.57;65.37;100136.66;6101553;23;20143;-92
2023/03/18 06:25:15;;;;;;;1.25;1.17;;;;;;;4.67;65.18;100152.34;6129939;23;20120;-91
2023/03/18 06:27:45;;;;;;;0.05;0.05;;;;;;;4.78;66.01;100162.53;6154173;23;20458;-94
2023/03/18 06:30:16;;;;;;;1.10;0.57;;;;;;;4.75;64.67;100113.84;6153076;23;20013;-92
2023/03/18 06:32:53;;;;;;;;;;;;;;;;;;;;;
2023/03/18 06:35:25;;;;;;;0.55;0.50;;;;;;;5.32;63.40;100156.50;6156035;23;20443;-92
2023/03/18 06:37:52;;;;;;;0.10;0.10;;;;;;;5.41;62.75;100162.38;6155006;23;20028;-93
2023/03/18 06:40:28;;;;;;;0.38;0.38;;;;;;;5.72;61.88;100171.66;6130723;23;20020;-91
2023/03/18 06:42:54;;;;;;;0.22;0.22;;;;;;;5.69;59.84;100146.91;6154533;23;20113;-93
2023/03/18 06:45:39;;;;;;;0.63;0.63;;;;;;;5.79;58.87;100157.06;6132141;23;20035;-93
2023/03/18 06:48:09;;;;;;;0.90;0.90;;;;;;;5.99;58.07;100175.47;6152517;23;20021;-91
2023/03/18 06:50:38;;;;;;;1.85;1.73;;;;;;;6.05;57.42;100176.63;6131541;23;20017;-92
2023/03/18 06:53:09;;;;;;;0.88;0.52;;;;;;;6.18;56.36;100195.44;6131540;23;20013;-93
2023/03/18 06:55:35;;;;;;;0.35;0.35;;;;;;;6.10;57.32;100202.97;6155394;23;20104;-93
2023/03/18 06:58:04;;;;;;;2.58;1.05;;;;;;;6.11;57.02;100185.22;6130702;23;20068;-91
2023/03/18 07:00:41;;;;;;;5.80;1.23;;;;;;;6.45;56.98;100191.69;6130118;23;20218;-92
2023/03/18 07:03:14;;;;;;;4.70;2.30;;;;;;;6.77;54.84;100193.41;6129450;23;20045;-93
2023/03/18 07:05:41;;;;;;;0.60;0.60;;;;;;;6.83;54.14;100195.34;6132104;23;20246;-93
2023/03/18 07:08:08;;;;;;;0.68;0.68;;;;;;;6.84;53.59;100198.84;6130861;23;20103;-91
2023/03/18 07:10:34;;;;;;;3.60;1.40;;;;;;;7.04;53.20;100184.06;6181224;23;20017;-94
2023/03/18 07:13:09;;;;;;;5.88;0.85;;;;;;;7.30;52.27;100212.19;6130524;23;20431;-91
2023/03/18 07:15:37;;;;;;;0.30;0.30;;;;;;;7.21;51.65;100187.84;6154613;23;20450;-93
2023/03/18 07:18:05;;;;;;;0.43;0.43;;;;;;;7.54;51.27;100202.06;6154016;23;20021;-92
2023/03/18 07:20:31;;;;;;;0.43;0.43;;;;;;;7.70;50.35;100202.28;6108437;23;20616;-92
2023/03/18 07:22:58;;;;;;;0.55;0.55;;;;;;;7.60;49.54;100186.63;6107589;23;20566;-92
2023/03/18 07:25:23;;;;;;;0.95;0.68;;;;;;;7.65;50.05;100192.47;6109189;23;20527;-94
2023/03/18 07:27:49;;;;;;;1.13;0.70;;;;;;;7.72;50.52;100183.31;6133450;23;20071;-94
2023/03/18 07:30:17;;;;;;;0.55;0.30;;;;;;;7.64;49.97;100187.38;6131931;23;20459;-95
2023/03/18 07:32:44;;;;;;;1.33;1.23;;;;;;;7.82;51.47;100196.19;6132444;23;20021;-94
2023/03/18 07:35:12;;;;;;;1.65;1.55;;;;;;;7.88;52.08;100211.13;6132875;23;20017;-93
2023/03/18 07:37:40;;;;;;;0.20;0.20;;;;;;;7.75;53.70;100199.84;6130205;23;20052;-93
2023/03/18 07:40:07;;;;;;;0.47;0.47;;;;;;;8.10;53.99;100198.56;6129994;23;20019;-93
2023/03/18 07:42:32;;;;;;;0.70;0.70;;;;;;;8.40;52.21;100203.31;6154607;23;20120;-93
2023/03/18 07:44:58;;;;;;;0.57;0.43;;;;;;;8.30;52.52;100205.03;6127583;23;20451;-92
2023/03/18 07:47:24;;;;;;;0.80;0.80;;;;;;;8.18;52.66;100207.53;6181336;23;20001;-95
2023/03/18 07:49:50;;;;;;;1.25;1.00;;;;;;;8.29;51.78;100217.28;6155371;23;20372;-91
2023/03/18 07:52:17;;;;;;;0.70;0.70;;;;;;;8.46;49.38;100218.22;6131740;23;20047;-92
2023/03/18 07:54:43;;;;;;;3.00;1.30;;;;;;;8.25;50.88;100210.97;6156485;23;20056;-91
2023/03/18 07:57:09;;;;;;;0.32;0.32;;;;;;;8.14;50.57;100207.59;6129940;23;20021;-95
2023/03/18 07:59:36;;;;;;;4.15;2.15;;;;;;;8.38;51.24;100228.59;6181939;23;20021;-92
2023/03/18 08:02:03;;;;;;;0.73;0.68;;;;;;;8.25;50.60;100222.03;6184942;23;20005;-92
2023/03/18 08:04:30;;;;;;;0.43;0.43;;;;;;;8.09;49.64;100218.34;6136370;23;20017;-95
2023/03/18 08:06:56;;;;;;;0.68;0.68;;;;;;;7.94;50.39;100201.16;6132911;23;20021;-95
2023/03/18 08:09:23;;;;;;;0.82;0.65;;;;;;;7.90;50.50;100190.16;6157611;23;20032;-95
2023/03/18 08:11:49;;;;;;;1.00;1.00;;;;;;;8.27;48.24;100236.22;6182003;23;20016;-95
2023/03/18 08:14:14;;;;;;;0.65;0.65;;;;;;;8.25;48.27;100191.63;6134033;23;20738;-95
2023/03/18 08:16:40;;;;;;;0.13;0.13;;;;;;;8.31;48.98;100208.56;6133810;23;20009;-94
2023/03/18 08:19:06;;;;;;;1.13;0.68;;;;;;;8.52;48.71;100216.56;6109111;23;20601;-93
2023/03/18 08:21:31;;;;;;;1.35;0.93;;;;;;;8.57;47.14;100215.28;6133862;23;20479;-93
2023/03/18 08:23:57;;;;;;;0.55;0.55;;;;;;;8.81;46.63;100233.47;6132055;23;20017;-93
2023/03/18 08:26:23;;;;;;;0.80;0.80;;;;;;;8.79;45.67;100210.97;6132002;23;20450;-93
2023/03/18 08:28:48;;;;;;;5.38;1.30;;;;;;;8.92;44.84;100209.19;6156724;23;20017;-94
2023/03/18 08:31:14;;;;;;;2.28;1.40;;;;;;;9.19;43.84;100231.22;6133378;23;20682;-95
2023/03/18 08:33:40;;;;;;;0.50;0.50;;;;;;;8.81;44.30;100214.13;6133443;23;20009;-95
2023/03/18 08:36:07;;;;;;;2.00;0.95;;;;;;;8.85;44.55;100215.63;6107655;23;20100;-93
2023/03/18 08:38:33;;;;;;;1.80;1.60;;;;;;;9.09;44.74;100207.31;6181446;23;20013;-94
2023/03/18 08:40:59;;;;;;;1.27;1.23;;;;;;;9.33;44.66;100217.91;6107071;23;20005;-94
2023/03/18 08:43:26;;;;;;;1.08;0.90;;;;;;;9.26;43.79;100212.50;6108512;23;20045;-94
2023/03/18 08:45:55;;;;;;;0.90;0.50;;;;;;;8.98;44.85;100206.72;6129499;23;20454;-88
2023/03/18 08:48:22;;;;;;;1.95;1.40;;;;;;;9.39;44.58;100220.97;6131006;23;20092;-89
2023/03/18 08:50:47;;;;;;;0.70;0.65;;;;;;;9.71;44.02;100203.72;6191110;23;20066;-90
2023/03/18 08:53:13;;;;;;;1.75;1.65;;;;;;;9.94;42.56;100209.19;6161853;23;20495;-88
2023/03/18 08:55:39;;;;;;;1.83;1.73;;;;;;;9.96;42.33;100226.16;6141379;23;20008;-89
2023/03/18 08:58:06;;;;;;;1.10;1.02;;;;;;;9.97;42.98;100216.63;6131831;23;20017;-89
2023/03/18 09:00:33;;;;;;;0.80;0.80;;;;;;;10.18;42.34;100234.81;6131187;23;20085;-89
2023/03/18 09:02:59;;;;;;;1.60;1.50;;;;;;;10.22;42.86;100228.00;6155405;23;20049;-89
2023/03/18 09:05:25;;;;;;;0.57;0.57;;;;;;;10.21;42.80;100220.88;6153866;23;20013;-89
2023/03/18 09:07:52;;;;;;;0.45;0.45;;;;;;;10.44;43.64;100227.50;6129008;23;20125;-90
2023/03/18 09:10:18;;;;;;;3.67;1.25;;;;;;;10.78;42.81;100214.00;6136965;23;20009;-89
2023/03/18 09:12:45;;;;;;;3.47;1.40;;;;;;;10.51;43.25;100207.94;6133528;23;20355;-89
2023/03/18 09:15:13;;;;;;;0.68;0.68;;;;;;;10.51;43.27;100216.25;6153909;23;20017;-88
2023/03/18 09:17:39;;;;;;;1.48;1.38;;;;;;;10.39;43.00;100209.41;6181587;23;20054;-90
2023/03/18 09:20:15;;;;;;;0.95;0.95;;;;;;;10.53;42.33;100199.94;6130905;23;20087;-94
2023/03/18 09:22:50;;;;;;;0.43;0.43;;;;;;;10.42;42.40;100175.25;6132302;23;20027;-91
2023/03/18 09:25:23;;;;;;;1.35;1.25;;;;;;;10.92;42.18;100205.31;6157587;23;20064;-93
2023/03/18 09:27:51;;;;;;;3.72;2.25;;;;;;;10.87;40.59;100218.94;6132226;23;20013;-92
2023/03/18 09:30:17;;;;;;;0.10;0.10;;;;;;;10.92;40.94;100202.53;6131118;23;20347;-88
2023/03/18 09:32:43;;;;;;;0.63;0.63;;;;;;;11.12;41.46;100208.75;6181530;23;20084;-93
2023/03/18 09:35:10;;;;;;;0.75;0.68;;;;;;;11.45;40.32;100194.78;6130269;23;20019;-92
2023/03/18 09:37:36;;;;;;;0.65;0.65;;;;;;;11.91;39.90;100199.84;6131479;23;20354;-94
2023/03/18 09:40:06;;;;;;;4.38;1.58;;;;;;;12.20;38.27;100216.44;6130231;23;20008;-93
2023/03/18 09:42:41;;;;;;;1.33;0.95;;;;;;;12.04;38.15;100202.66;6130379;23;20020;-95
2023/03/18 09:45:39;;;;;;;1.75;1.45;;;;;;;12.12;38.49;100207.56;6154702;23;20029;-92
2023/03/18 09:48:26;;;;;;;1.30;1.10;;;;;;;12.40;38.71;100205.13;6151295;23;20032;-92
2023/03/18 09:51:20;;;;;;;3.40;1.10;;;;;;;12.29;37.54;100208.25;6155052;23;20593;-93
2023/03/18 09:53:59;;;;;;;0.77;0.77;;;;;;;12.42;37.01;100197.09;6155020;23;20601;-93
2023/03/18 09:56:29;;;;;;;0.63;0.63;;;;;;;12.08;37.67;100197.75;6155907;23;20017;-92
2023/03/18 09:59:04;;;;;;;0.77;0.77;;;;;;;11.98;38.21;100205.19;6130509;23;20013;-93
2023/03/18 10:01:33;;;;;;;0.57;0.57;;;;;;;12.13;37.69;100197.97;6131391;23;20024;-94
2023/03/18 10:04:03;;;;;;;0.60;0.52;;;;;;;12.53;38.04;100183.63;6130172;23;20105;-92
2023/03/18 10:06:30;;;;;;;1.02;0.98;;;;;;;12.55;36.24;100181.16;6106462;23;20050;-92
2023/03/18 10:09:10;;;;;;;0.63;0.63;;;;;;;12.52;35.65;100177.28;6129096;23;20482;-94
2023/03/18 10:11:41;;;;;;;2.55;0.85;;;;;;;12.56;36.10;100177.94;6131124;23;20021;-94
2023/03/18 10:14:17;;;;;;;0.93;0.77;;;;;;;12.66;35.87;100176.03;6154194;23;20121;-93
2023/03/18 10:17:16;;;;;;;2.90;1.67;;;;;;;12.77;36.30;100172.91;6155605;23;20439;-94
2023/03/18 10:19:53;;;;;;;0.10;0.10;;;;;;;12.80;35.47;100166.44;6154660;23;20467;-92
2023/03/18 10:22:31;;;;;;;1.27;1.13;;;;;;;12.95;35.97;100176.63;6155743;23;20021;-93
2023/03/18 10:25:22;;;;;;;1.48;0.85;;;;;;;13.31;36.16;100175.41;6155972;23;20455;-94
2023/03/18 10:28:15;;;;;;;1.20;0.85;;;;;;;13.72;35.42;100177.09;6131015;23;20023;-94
2023/03/18 10:31:21;;;;;;;0.32;0.32;;;;;;;14.10;34.96;100165.72;6173361;23;20025;-91
2023/03/18 10:33:58;;;;;;;0.80;0.73;;;;;;;13.89;33.83;100176.44;6130803;23;20044;-93
2023/03/18 10:36:42;;;;;;;1.23;1.13;;;;;;;13.68;34.20;100177.25;6154321;23;20020;-94
2023/03/18 10:39:12;;;;;;;;;;;;;;;13.89;34.56;100170.88;6155624;23;20423;-95
2023/03/18 10:41:38;;;;;;;2.60;2.10;;;;;;;13.95;33.62;100169.03;6131467;23;19912;-92
2023/03/18 10:44:17;;;;;;;1.38;1.27;;;;;;;13.84;33.15;100163.09;6129884;23;20334;-90
2023/03/18 10:46:43;;;;;;;2.75;1.48;;;;;;;13.38;34.67;100152.91;6156041;23;20017;-93
2023/03/18 10:49:11;;;;;;;1.17;1.13;;;;;;;13.84;34.44;100168.66;6106162;23;20044;-93
2023/03/18 10:51:49;;;;;;;1.55;1.02;;;;;;;13.73;34.25;100171.09;6129830;23;20021;-93
2023/03/18 10:54:34;;;;;;;1.77;0.88;;;;;;;13.55;34.37;100170.97;6130964;23;20088;-92
2023/03/18 10:57:02;;;;;;;1.20;0.82;;;;;;;13.44;34.78;100156.66;6181625;23;20009;-92
2023/03/18 10:59:28;;;;;;;2.03;1.40;;;;;;;13.54;34.20;100158.28;6154514;23;20009;-94
2023/03/18 11:02:01;;;;;;;1.40;1.30;;;;;;;13.20;34.57;100158.31;6130332;23;20048;-94
2023/03/18 11:04:29;;;;;;;2.20;0.77;;;;;;;13.58;34.91;100158.13;6129981;23;20017;-93
2023/03/18 11:06:57;;;;;;;1.02;0.50;;;;;;;13.94;35.32;100153.56;6131009;23;20025;-92
2023/03/18 11:09:35;;;;;;;1.20;1.10;;;;;;;14.13;33.55;100154.41;6105678;23;20013;-93
2023/03/18 11:12:27;;;;;;;3.40;0.98;;;;;;;13.90;33.90;100154.94;6129649;23;20044;-93
2023/03/18 11:14:55;;;;;;;1.50;0.95;;;;;;;14.01;33.61;100155.28;6127329;23;20017;-92
2023/03/18 11:17:30;;;;;;;1.02;1.02;;;;;;;13.72;34.24;100132.50;6131763;23;20017;-93
2023/03/18 11:20:06;;;;;;;2.35;1.38;;;;;;;13.84;34.17;100107.34;6107129;23;20502;-95
2023/03/18 11:22:33;;;;;;;1.40;1.30;;;;;;;14.08;33.69;100138.25;6153289;23;20100;-88
2023/03/18 11:25:22;;;;;;;0.80;0.80;;;;;;;14.24;33.48;100142.81;6128639;23;20012;-88
2023/03/18 11:28:18;;;;;;;1.20;1.08;;;;;;;13.97;33.74;100133.13;6153390;23;20020;-88
2023/03/18 11:30:47;;;;;;;3.03;1.38;;;;;;;13.73;34.09;100115.34;6152334;23;20020;-88
2023/03/18 11:33:14;;;;;;;1.23;0.85;;;;;;;14.08;34.16;100095.66;6178834;23;20059;-87
2023/03/18 11:35:53;;;;;;;0.35;0.35;;;;;;;14.83;33.67;100130.44;6153842;23;20009;-88
2023/03/18 11:38:29;;;;;;;2.25;1.33;;;;;;;14.75;32.49;100118.81;6153054;23;20447;-87
2023/03/18 11:41:07;;;;;;;0.43;0.43;;;;;;;15.04;32.67;100118.38;6153704;23;20028;-94
2023/03/18 11:43:33;;;;;;;1.60;0.57;;;;;;;15.13;31.82;100098.00;6131324;23;20025;-93
2023/03/18 11:46:03;;;;;;;1.17;1.10;;;;;;;14.85;31.97;100105.63;6105738;23;20017;-94
2023/03/18 11:48:39;;;;;;;4.35;1.67;;;;;;;14.82;31.93;100104.53;6156132;23;20063;-94